ROTAER D-AMDT 12/20 Ver Mudanças

Manicoré ( SBMY ) / MANICORÉ, AM 05 49 01S/061 17 02W
AD PUB 3E UTC-4 53 (174)

05 - ( 1265x30 ASPH 12/F/C/Y/U ) - 23

SBAZ (CINDACTA 4)
RDONAV -
NDB MCR [1] 310 0548.43S/06116.92W
CMB- [2] TF
MET -

[3]

RMK -

INFORMAÇÃO ADICIONAL
  1. OBS concentração de pássaros (urubus) na perna do vento da RWY 05 e nas proximidades das laterais da RWY 05/23
COMPL -
  • [1] OPR INFRAERO
  • [2] HJ. Somente para ACFT ETA 7 e 7º/8º GAV, demais ACFT FAB, somente com autorização da ALA 8.
  • [3] ERAA (estação de radiodifusão automática de aeródromo) FREQ 132.600MHZ HR SER MON TIL FRI 0000-1215 1600-1715 2045-2359 SAT SUN HOL SER H24
TEMP (0)

Suplementos AIP (0)

NOTAM (1)

CNS

G0606/20 N 27/04/2020 14:59
NDB MCR 310KHZ U/S


Nascer/Por do Sol

10:08

21:57


METAR

TAF

282100Z 2900/2912 00000KT CAVOK TN23/2907Z TX25/2912Z PROB30 2910/2912 5000 BR BKN005 RMK PEH=


Cartas (0)


Rotas Preferenciais (0)